createdAt,value
2022-10-30T00:00:29.019Z,101475.59
2022-10-30T00:02:56.026Z,101475.50
2022-10-30T00:05:23.601Z,101474.66
2022-10-30T00:07:50.659Z,101476.44
2022-10-30T00:10:18.003Z,101477.34
2022-10-30T00:12:44.620Z,101479.91
2022-10-30T00:15:12.104Z,101481.47
2022-10-30T00:17:38.702Z,101486.63
2022-10-30T00:20:06.358Z,101484.78
2022-10-30T00:22:33.132Z,101481.38
2022-10-30T00:24:59.653Z,101470.78
2022-10-30T00:27:26.203Z,101480.38
2022-10-30T00:29:55.770Z,101478.84
2022-10-30T00:32:22.316Z,101486.63
2022-10-30T00:34:48.888Z,101480.75
2022-10-30T00:37:15.527Z,101477.28
2022-10-30T00:39:42.125Z,101473.97
2022-10-30T00:42:13.200Z,101472.09
2022-10-30T00:44:46.054Z,101479.97
2022-10-30T00:47:27.837Z,101471.53
2022-10-30T00:50:22.747Z,101476.03
2022-10-30T00:52:54.936Z,101477.91
2022-10-30T00:55:31.486Z,101479.78
2022-10-30T00:58:01.766Z,101483.16
2022-10-30T01:00:31.031Z,101485.03
2022-10-30T01:02:59.167Z,101483.44
2022-10-30T01:05:28.810Z,101481.75
2022-10-30T01:07:55.603Z,101484.47
2022-10-30T01:10:23.882Z,101484.72
2022-10-30T01:12:52.319Z,101484.94
2022-10-30T01:15:29.025Z,101484.19
2022-10-30T01:18:04.311Z,101477.41
2022-10-30T01:20:37.011Z,101480.13
2022-10-30T01:23:19.600Z,101481.25
2022-10-30T01:26:06.634Z,101483.88
2022-10-30T01:28:55.383Z,101483.31
2022-10-30T01:31:31.065Z,101483.47
2022-10-30T01:34:14.494Z,101481.88
2022-10-30T01:36:52.054Z,101469.13
2022-10-30T01:39:25.429Z,101475.47
2022-10-30T01:41:52.593Z,101473.13
2022-10-30T01:44:26.034Z,101467.03
2022-10-30T01:47:33.864Z,101470.03
2022-10-30T01:50:34.078Z,101470.44
2022-10-30T01:53:22.795Z,101469.66
2022-10-30T01:56:10.785Z,101463.84
2022-10-30T01:58:48.735Z,101468.31
2022-10-30T02:01:15.797Z,101468.50
2022-10-30T02:03:42.825Z,101461.56
2022-10-30T02:06:09.330Z,101459.94
2022-10-30T02:08:35.994Z,101449.66
2022-10-30T02:11:02.751Z,101452.47
2022-10-30T02:13:29.771Z,101456.09
2022-10-30T02:15:59.508Z,101453.66
2022-10-30T02:18:26.015Z,101457.22
2022-10-30T02:20:52.610Z,101456.28
2022-10-30T02:23:20.051Z,101459.16
2022-10-30T02:25:46.568Z,101467.09
2022-10-30T02:28:13.167Z,101466.34
2022-10-30T02:30:40.998Z,101465.66
2022-10-30T02:33:07.610Z,101470.06
2022-10-30T02:35:35.427Z,101476.50
2022-10-30T02:38:03.332Z,101476.78
2022-10-30T02:40:29.870Z,101483.09
2022-10-30T02:42:56.434Z,101476.16
2022-10-30T02:45:23.089Z,101480.66
2022-10-30T02:47:49.741Z,101485.13
2022-10-30T02:50:17.056Z,101488.78
2022-10-30T02:52:43.891Z,101478.47
2022-10-30T02:55:10.503Z,101480.22
2022-10-30T02:57:37.199Z,101487.31
2022-10-30T03:00:05.101Z,101483.94
2022-10-30T03:02:31.652Z,101484.09
2022-10-30T03:04:58.195Z,101484.09
2022-10-30T03:07:24.732Z,101487.94
2022-10-30T03:09:52.360Z,101490.69
2022-10-30T03:12:19.224Z,101482.16
2022-10-30T03:14:45.883Z,101488.50
2022-10-30T03:17:12.454Z,101485.13
2022-10-30T03:19:41.174Z,101496.66
2022-10-30T03:22:08.036Z,101485.44
2022-10-30T03:24:34.576Z,101490.59
2022-10-30T03:27:01.214Z,101498.78
2022-10-30T03:29:28.728Z,101501.47
2022-10-30T03:31:55.613Z,101498.06
2022-10-30T03:34:22.254Z,101495.53
2022-10-30T03:36:49.268Z,101488.66
2022-10-30T03:39:15.850Z,101498.38
2022-10-30T03:41:43.566Z,101501.19
2022-10-30T03:44:10.120Z,101500.41
2022-10-30T03:46:36.985Z,101497.78
2022-10-30T03:49:03.780Z,101497.88
2022-10-30T03:51:30.280Z,101499.63
2022-10-30T03:53:56.930Z,101505.91
2022-10-30T03:56:23.694Z,101505.81
2022-10-30T03:58:50.531Z,101507.81
2022-10-30T04:01:17.138Z,101512.28
2022-10-30T04:03:44.011Z,101517.66
2022-10-30T04:06:10.639Z,101508.97
2022-10-30T04:08:37.236Z,101511.84
2022-10-30T04:11:04.224Z,101506.91
2022-10-30T04:13:30.906Z,101509.69
2022-10-30T04:15:58.378Z,101510.59
2022-10-30T04:18:25.565Z,101506.38
2022-10-30T04:20:52.089Z,101506.53
2022-10-30T04:23:20.619Z,101514.53
2022-10-30T04:25:47.569Z,101514.75
2022-10-30T04:28:14.192Z,101515.78
2022-10-30T04:30:41.049Z,101516.63
2022-10-30T04:33:11.248Z,101514.94
2022-10-30T04:35:38.839Z,101516.94
2022-10-30T04:38:07.867Z,101516.16
2022-10-30T04:40:36.826Z,101513.69
2022-10-30T04:43:04.061Z,101508.53
2022-10-30T04:45:31.263Z,101502.63
2022-10-30T04:48:03.248Z,101501.81
2022-10-30T04:50:30.836Z,101496.75
2022-10-30T04:53:10.692Z,101494.31
2022-10-30T04:55:37.294Z,101496.28
2022-10-30T04:58:03.800Z,101500.78
2022-10-30T05:00:31.854Z,101501.75
2022-10-30T05:03:00.762Z,101499.22
2022-10-30T05:05:31.464Z,101501.91
2022-10-30T05:07:58.313Z,101496.59
2022-10-30T05:10:25.301Z,101501.06
2022-10-30T05:12:55.866Z,101490.13
2022-10-30T05:15:22.438Z,101496.41
2022-10-30T05:17:53.980Z,101487.66
2022-10-30T05:20:21.443Z,101492.88
2022-10-30T05:22:56.124Z,101499.19
2022-10-30T05:25:24.008Z,101486.41
2022-10-30T05:27:50.626Z,101492.50
2022-10-30T05:30:17.324Z,101483.81
2022-10-30T05:32:43.804Z,101491.47
2022-10-30T05:35:10.328Z,101476.72
2022-10-30T05:37:36.996Z,101475.06
2022-10-30T05:40:03.765Z,101473.34
2022-10-30T05:42:30.330Z,101473.59
2022-10-30T05:45:01.719Z,101475.28
2022-10-30T05:47:29.197Z,101472.69
2022-10-30T05:49:55.944Z,101474.53
2022-10-30T05:52:22.452Z,101482.41
2022-10-30T05:54:48.978Z,101490.34
2022-10-30T05:57:15.473Z,101482.56
2022-10-30T05:59:42.011Z,101485.28
2022-10-30T06:04:44.310Z,101479.19
2022-10-30T06:07:11.365Z,101490.50
2022-10-30T06:09:37.869Z,101489.72
2022-10-30T06:12:04.704Z,101495.84
2022-10-30T06:14:31.253Z,101496.78
2022-10-30T06:16:58.025Z,101497.72
2022-10-30T06:19:24.621Z,101505.56
2022-10-30T06:21:51.144Z,101493.47
2022-10-30T06:24:18.139Z,101498.72
2022-10-30T06:26:44.649Z,101501.38
2022-10-30T06:29:11.152Z,101498.84
2022-10-30T06:31:37.665Z,101493.69
2022-10-30T06:34:05.435Z,101490.31
2022-10-30T06:36:32.180Z,101496.47
2022-10-30T06:38:59.058Z,101498.28
2022-10-30T06:41:29.196Z,101494.81
2022-10-30T06:43:57.397Z,101497.44
2022-10-30T06:46:27.010Z,101502.75
2022-10-30T06:48:57.921Z,101501.81
2022-10-30T06:51:24.773Z,101495.63
2022-10-30T06:53:51.253Z,101508.59
2022-10-30T06:56:18.138Z,101501.53
2022-10-30T06:58:44.682Z,101504.88
2022-10-30T07:01:11.404Z,101502.16
2022-10-30T07:03:38.008Z,101502.16
2022-10-30T07:06:04.872Z,101505.56
2022-10-30T07:08:31.491Z,101502.94
2022-10-30T07:10:58.734Z,101511.53
2022-10-30T07:13:25.478Z,101501.72
2022-10-30T07:15:54.382Z,101504.25
2022-10-30T07:18:20.971Z,101516.38
2022-10-30T07:20:47.477Z,101511.91
2022-10-30T07:23:13.960Z,101525.72
2022-10-30T07:25:40.429Z,101522.94
2022-10-30T07:28:09.743Z,101519.19
2022-10-30T07:30:36.270Z,101520.50
2022-10-30T07:33:05.348Z,101524.53
2022-10-30T07:35:33.618Z,101519.97
2022-10-30T07:38:11.407Z,101512.75
2022-10-30T07:40:37.944Z,101516.84
2022-10-30T07:43:05.210Z,101512.28
2022-10-30T07:45:32.158Z,101515.53
2022-10-30T07:47:58.988Z,101509.00
2022-10-30T07:50:25.747Z,101506.59
2022-10-30T07:52:52.244Z,101503.53
2022-10-30T07:55:18.946Z,101511.44
2022-10-30T07:57:45.472Z,101497.03
2022-10-30T08:00:14.033Z,101487.91
2022-10-30T08:02:41.186Z,101495.41
2022-10-30T08:05:08.569Z,101493.28
2022-10-30T08:07:37.904Z,101497.38
2022-10-30T08:10:05.701Z,101495.19
2022-10-30T08:12:33.574Z,101486.16
2022-10-30T08:15:00.127Z,101485.81
2022-10-30T08:17:26.687Z,101487.19
2022-10-30T08:19:53.563Z,101489.53
2022-10-30T08:22:20.066Z,101489.88
2022-10-30T08:24:47.082Z,101489.38
2022-10-30T08:27:13.601Z,101482.09
2022-10-30T08:29:42.627Z,101488.00
2022-10-30T08:32:09.923Z,101475.28
2022-10-30T08:34:36.381Z,101479.34
2022-10-30T08:37:02.917Z,101478.41
2022-10-30T08:39:29.487Z,101475.19
2022-10-30T08:41:58.670Z,101480.16
2022-10-30T08:44:25.268Z,101477.66
2022-10-30T08:46:51.823Z,101483.13
2022-10-30T08:49:18.375Z,101479.09
2022-10-30T08:51:46.130Z,101471.22
2022-10-30T08:54:12.790Z,101470.78
2022-10-30T08:56:39.314Z,101473.59
2022-10-30T08:59:05.794Z,101472.28
2022-10-30T09:01:32.607Z,101469.84
2022-10-30T09:03:59.204Z,101471.00
2022-10-30T09:06:25.723Z,101468.72
2022-10-30T09:08:52.387Z,101468.44
2022-10-30T09:11:18.984Z,101464.59
2022-10-30T09:13:45.514Z,101463.44
2022-10-30T09:16:12.588Z,101459.38
2022-10-30T09:18:39.144Z,101457.00
2022-10-30T09:21:05.841Z,101450.31
2022-10-30T09:23:32.567Z,101450.53
2022-10-30T09:25:59.210Z,101450.13
2022-10-30T09:28:25.754Z,101441.91
2022-10-30T09:30:52.959Z,101434.75
2022-10-30T09:33:19.466Z,101443.19
2022-10-30T09:35:45.995Z,101435.41
2022-10-30T09:38:13.121Z,101435.66
2022-10-30T09:40:44.588Z,101439.03
2022-10-30T09:43:19.064Z,101438.81
2022-10-30T09:46:10.450Z,101446.72
2022-10-30T09:48:49.171Z,101453.16
2022-10-30T09:51:18.657Z,101462.72
2022-10-30T09:54:02.592Z,101460.03
2022-10-30T09:56:36.370Z,101451.72
2022-10-30T09:59:02.883Z,101450.03
2022-10-30T10:02:02.644Z,101449.84
2022-10-30T10:04:38.409Z,101447.22
2022-10-30T10:07:16.658Z,101443.75
2022-10-30T10:09:44.470Z,101443.06
2022-10-30T10:12:36.961Z,101438.47
2022-10-30T10:15:11.491Z,101430.06
2022-10-30T10:17:42.231Z,101429.13
2022-10-30T10:20:32.633Z,101434.94
2022-10-30T10:23:05.290Z,101438.06
2022-10-30T10:25:31.798Z,101442.50
2022-10-30T10:28:32.850Z,101436.38
2022-10-30T10:31:13.241Z,101437.16
2022-10-30T10:33:55.153Z,101433.88
2022-10-30T10:36:36.466Z,101434.72
2022-10-30T10:39:23.470Z,101428.63
2022-10-30T10:42:13.606Z,101441.56
2022-10-30T10:44:48.825Z,101431.97
2022-10-30T10:47:46.048Z,101434.41
2022-10-30T10:50:21.858Z,101431.34
2022-10-30T10:52:56.613Z,101422.28
2022-10-30T10:55:27.925Z,101426.41
2022-10-30T10:57:59.780Z,101420.19
2022-10-30T11:00:29.079Z,101420.69
2022-10-30T11:05:52.758Z,101423.00
2022-10-30T11:08:25.590Z,101416.38
2022-10-30T11:10:58.121Z,101418.88
2022-10-30T11:13:46.112Z,101415.28
2022-10-30T11:16:24.508Z,101415.09
2022-10-30T11:18:56.382Z,101411.28
2022-10-30T11:21:24.924Z,101411.91
2022-10-30T11:23:51.819Z,101407.25
2022-10-30T11:26:18.340Z,101410.25
2022-10-30T11:28:52.796Z,101410.25
2022-10-30T11:31:21.166Z,101404.97
2022-10-30T11:33:48.345Z,101404.13
2022-10-30T11:36:17.824Z,101401.16
2022-10-30T11:38:44.439Z,101402.63
2022-10-30T11:41:11.880Z,101397.88
2022-10-30T11:43:41.186Z,101396.81
2022-10-30T11:46:11.826Z,101396.97
2022-10-30T11:48:43.347Z,101395.91
2022-10-30T11:51:11.536Z,101391.88
2022-10-30T11:53:47.303Z,101389.84
2022-10-30T11:56:20.253Z,101394.91
2022-10-30T11:58:53.359Z,101389.25
2022-10-30T12:01:28.649Z,101390.91
2022-10-30T12:03:56.639Z,101384.56
2022-10-30T12:06:23.082Z,101379.19
2022-10-30T12:09:17.438Z,101384.44
2022-10-30T12:11:44.762Z,101380.13
2022-10-30T12:14:19.411Z,101382.25
2022-10-30T12:16:48.848Z,101384.91
2022-10-30T12:19:17.899Z,101393.44
2022-10-30T12:21:48.753Z,101394.06
2022-10-30T12:24:23.731Z,101394.44
2022-10-30T12:26:54.186Z,101387.03
2022-10-30T12:29:36.554Z,101387.41
2022-10-30T12:32:18.797Z,101387.56
2022-10-30T12:35:11.478Z,101391.78
2022-10-30T12:37:43.752Z,101385.69
2022-10-30T12:40:24.808Z,101387.56
2022-10-30T12:42:58.906Z,101389.03
2022-10-30T12:45:34.337Z,101387.94
2022-10-30T12:48:16.631Z,101383.06
2022-10-30T12:51:08.429Z,101381.25
2022-10-30T12:53:44.673Z,101380.75
2022-10-30T12:56:27.263Z,101380.13
2022-10-30T12:59:32.340Z,101371.94
2022-10-30T13:02:15.935Z,101372.81
2022-10-30T13:04:48.298Z,101367.66
2022-10-30T13:07:26.760Z,101370.31
2022-10-30T13:10:10.480Z,101375.47
2022-10-30T13:12:40.727Z,101368.50
2022-10-30T13:15:17.205Z,101359.41
2022-10-30T13:17:44.072Z,101361.91
2022-10-30T13:20:14.226Z,101362.75
2022-10-30T13:22:58.237Z,101364.91
2022-10-30T13:25:33.140Z,101367.16
2022-10-30T13:28:25.725Z,101363.44
2022-10-30T13:31:18.746Z,101362.78
2022-10-30T13:33:58.480Z,101368.00
2022-10-30T13:36:31.088Z,101371.28
2022-10-30T13:39:21.041Z,101372.13
2022-10-30T13:41:56.819Z,101367.91
2022-10-30T13:44:37.842Z,101378.47
2022-10-30T13:47:13.338Z,101372.97
2022-10-30T13:49:57.024Z,101377.19
2022-10-30T13:55:26.337Z,101381.97
2022-10-30T13:58:26.297Z,101377.38
2022-10-30T14:01:15.236Z,101381.84
2022-10-30T14:03:44.902Z,101378.22
2022-10-30T14:06:35.763Z,101373.66
2022-10-30T14:09:17.602Z,101372.09
2022-10-30T14:11:44.503Z,101375.22
2022-10-30T14:14:23.316Z,101365.81
2022-10-30T14:17:08.402Z,101358.38
2022-10-30T14:20:15.170Z,101358.81
2022-10-30T14:22:41.838Z,101366.25
2022-10-30T14:25:16.274Z,101356.84
2022-10-30T14:27:42.851Z,101359.13
2022-10-30T14:30:20.072Z,101351.56
2022-10-30T14:32:53.065Z,101358.72
2022-10-30T14:35:33.830Z,101347.69
2022-10-30T14:38:09.304Z,101349.72
2022-10-30T14:40:56.371Z,101343.19
2022-10-30T14:43:36.388Z,101342.59
2022-10-30T14:46:19.912Z,101348.09
2022-10-30T14:49:00.405Z,101356.25
2022-10-30T14:51:45.243Z,101348.53
2022-10-30T14:54:34.096Z,101354.88
2022-10-30T14:57:01.020Z,101354.03
2022-10-30T14:59:34.781Z,101353.22
2022-10-30T15:02:13.630Z,101352.38
2022-10-30T15:04:55.585Z,101345.41
2022-10-30T15:07:45.452Z,101345.50
2022-10-30T15:10:24.585Z,101343.94
2022-10-30T15:12:51.225Z,101352.94
2022-10-30T15:15:18.950Z,101359.25
2022-10-30T15:17:52.092Z,101356.84
2022-10-30T15:20:22.674Z,101359.72
2022-10-30T15:22:54.604Z,101364.47
2022-10-30T15:25:24.514Z,101372.66
2022-10-30T15:27:54.597Z,101380.91
2022-10-30T15:30:24.274Z,101375.97
2022-10-30T15:32:51.163Z,101381.56
2022-10-30T15:35:21.844Z,101384.53
2022-10-30T15:38:09.765Z,101379.91
2022-10-30T15:40:38.339Z,101385.72
2022-10-30T15:43:07.801Z,101392.34
2022-10-30T15:45:40.980Z,101392.88
2022-10-30T15:48:12.143Z,101391.50
2022-10-30T15:50:43.054Z,101398.16
2022-10-30T15:53:19.207Z,101413.34
2022-10-30T15:55:46.922Z,101409.44
2022-10-30T15:58:17.794Z,101406.38
2022-10-30T16:00:56.315Z,101418.03
2022-10-30T16:03:22.923Z,101419.09
2022-10-30T16:05:49.465Z,101423.72
2022-10-30T16:08:24.674Z,101426.66
2022-10-30T16:10:55.813Z,101428.09
2022-10-30T16:13:28.754Z,101429.34
2022-10-30T16:15:55.609Z,101427.22
2022-10-30T16:18:28.216Z,101428.47
2022-10-30T16:20:58.434Z,101433.28
2022-10-30T16:23:25.101Z,101431.78
2022-10-30T16:25:59.713Z,101429.56
2022-10-30T16:28:33.276Z,101434.28
2022-10-30T16:31:07.056Z,101443.41
2022-10-30T16:33:35.795Z,101443.69
2022-10-30T16:36:04.914Z,101442.00
2022-10-30T16:38:37.066Z,101451.06
2022-10-30T16:41:08.235Z,101450.41
2022-10-30T16:43:35.641Z,101452.91
2022-10-30T16:46:14.863Z,101461.13
2022-10-30T16:48:47.073Z,101456.88
2022-10-30T16:51:17.955Z,101466.88
2022-10-30T16:54:02.441Z,101480.19
2022-10-30T16:56:31.428Z,101479.34
2022-10-30T16:59:07.870Z,101487.50
2022-10-30T17:01:35.558Z,101484.31
2022-10-30T17:04:02.541Z,101479.41
2022-10-30T17:06:35.797Z,101490.09
2022-10-30T17:09:08.150Z,101492.19
2022-10-30T17:11:43.859Z,101492.38
2022-10-30T17:14:22.114Z,101498.84
2022-10-30T17:17:00.225Z,101505.13
2022-10-30T17:19:32.718Z,101513.38
2022-10-30T17:22:02.534Z,101523.31
2022-10-30T17:24:32.770Z,101532.31
2022-10-30T17:27:04.574Z,101524.72
2022-10-30T17:29:37.188Z,101530.16
2022-10-30T17:32:06.253Z,101535.56
2022-10-30T17:34:38.884Z,101534.09
2022-10-30T17:37:08.359Z,101532.47
2022-10-30T17:39:34.887Z,101543.16
2022-10-30T17:42:01.680Z,101537.16
2022-10-30T17:44:35.671Z,101544.25
2022-10-30T17:47:14.904Z,101544.25
2022-10-30T17:49:41.594Z,101549.59
2022-10-30T17:52:14.997Z,101554.94
2022-10-30T17:54:42.192Z,101558.53
2022-10-30T17:57:12.869Z,101561.31
2022-10-30T17:59:40.659Z,101562.25
2022-10-30T18:02:14.423Z,101559.72
2022-10-30T18:04:43.626Z,101557.00
2022-10-30T18:07:12.405Z,101565.50
2022-10-30T18:09:39.545Z,101573.03
2022-10-30T18:12:08.089Z,101579.41
2022-10-30T18:14:34.562Z,101583.81
2022-10-30T18:17:01.018Z,101579.50
2022-10-30T18:19:27.572Z,101579.53
2022-10-30T18:21:54.671Z,101586.50
2022-10-30T18:24:21.446Z,101583.81
2022-10-30T18:26:48.015Z,101590.03
2022-10-30T18:29:14.667Z,101591.06
2022-10-30T18:31:41.368Z,101586.66
2022-10-30T18:34:21.226Z,101589.47
2022-10-30T18:36:48.538Z,101593.06
2022-10-30T18:39:15.062Z,101593.06
2022-10-30T18:41:44.153Z,101615.94
2022-10-30T18:44:14.657Z,101613.41
2022-10-30T18:46:41.491Z,101611.72
2022-10-30T18:49:08.137Z,101613.41
2022-10-30T18:51:34.674Z,101608.81
2022-10-30T18:54:01.220Z,101605.44
2022-10-30T18:56:29.665Z,101617.53
2022-10-30T18:59:00.679Z,101628.81
2022-10-30T19:01:32.192Z,101615.59
2022-10-30T19:04:03.874Z,101613.81
2022-10-30T19:06:30.801Z,101619.06
2022-10-30T19:08:58.630Z,101621.50
2022-10-30T19:11:25.819Z,101627.63
2022-10-30T19:13:54.494Z,101635.56
2022-10-30T19:16:25.451Z,101635.56
2022-10-30T19:18:52.580Z,101632.88
2022-10-30T19:21:21.832Z,101641.59
2022-10-30T19:23:48.480Z,101644.22
2022-10-30T19:26:17.683Z,101648.56
2022-10-30T19:28:45.673Z,101651.25
2022-10-30T19:31:17.086Z,101660.88
2022-10-30T19:33:43.721Z,101665.38
2022-10-30T19:36:31.346Z,101662.00
2022-10-30T19:38:58.042Z,101662.84
2022-10-30T19:41:25.048Z,101674.50
2022-10-30T19:43:52.605Z,101671.97
2022-10-30T19:46:19.119Z,101674.84
2022-10-30T19:49:01.094Z,101676.81
2022-10-30T19:51:28.713Z,101676.09
2022-10-30T19:53:55.529Z,101652.56
2022-10-30T19:56:22.246Z,101660.53
2022-10-30T19:58:49.107Z,101666.88
2022-10-30T20:01:16.246Z,101677.34
2022-10-30T20:03:43.015Z,101669.72
2022-10-30T20:06:12.250Z,101671.69
2022-10-30T20:08:38.796Z,101676.09
2022-10-30T20:11:05.441Z,101684.19
2022-10-30T20:13:33.519Z,101680.81
2022-10-30T20:16:03.409Z,101679.44
2022-10-30T20:18:31.738Z,101680.50
2022-10-30T20:21:04.467Z,101691.16
2022-10-30T20:23:31.062Z,101694.00
2022-10-30T20:26:02.919Z,101695.97
2022-10-30T20:28:38.169Z,101693.47
2022-10-30T20:31:06.112Z,101692.81
2022-10-30T20:33:33.171Z,101693.13
2022-10-30T20:35:59.730Z,101693.28
2022-10-30T20:38:32.755Z,101699.38
2022-10-30T20:41:01.519Z,101701.16
2022-10-30T20:43:36.657Z,101705.69
2022-10-30T20:46:05.043Z,101714.47
2022-10-30T20:48:32.097Z,101719.81
2022-10-30T20:51:01.117Z,101725.09
2022-10-30T20:53:29.335Z,101725.88
2022-10-30T20:55:56.694Z,101727.72
2022-10-30T20:58:23.845Z,101729.56
2022-10-30T21:00:50.863Z,101724.50
2022-10-30T21:03:17.373Z,101728.81
2022-10-30T21:05:45.949Z,101741.75
2022-10-30T21:08:14.113Z,101734.91
2022-10-30T21:10:42.363Z,101731.44
2022-10-30T21:13:10.299Z,101736.81
2022-10-30T21:15:44.867Z,101734.19
2022-10-30T21:18:13.212Z,101735.97
2022-10-30T21:20:41.045Z,101746.53
2022-10-30T21:23:08.248Z,101738.81
2022-10-30T21:25:35.841Z,101746.81
2022-10-30T21:28:04.264Z,101747.75
2022-10-30T21:30:31.104Z,101750.38
2022-10-30T21:32:59.224Z,101752.91
2022-10-30T21:35:26.859Z,101756.06
2022-10-30T21:37:53.328Z,101750.84
2022-10-30T21:40:19.808Z,101763.25
2022-10-30T21:42:49.225Z,101769.25
2022-10-30T21:45:16.032Z,101774.59
2022-10-30T21:47:42.478Z,101773.81
2022-10-30T21:50:12.141Z,101777.97
2022-10-30T21:52:39.761Z,101770.03
2022-10-30T21:55:06.546Z,101776.28
2022-10-30T21:57:33.017Z,101781.34
2022-10-30T22:00:01.793Z,101774.50
2022-10-30T22:02:32.562Z,101771.78
2022-10-30T22:04:59.043Z,101775.50
2022-10-30T22:07:25.518Z,101781.59
2022-10-30T22:09:53.569Z,101782.44
2022-10-30T22:12:20.239Z,101779.06
2022-10-30T22:14:46.700Z,101776.44
2022-10-30T22:17:13.257Z,101775.78
2022-10-30T22:19:39.795Z,101782.88
2022-10-30T22:22:06.831Z,101788.88
2022-10-30T22:24:33.290Z,101792.34
2022-10-30T22:26:59.793Z,101790.72
2022-10-30T22:29:26.234Z,101791.63
2022-10-30T22:31:52.776Z,101794.25
2022-10-30T22:34:19.446Z,101794.25
2022-10-30T22:36:46.967Z,101794.25
2022-10-30T22:39:14.382Z,101805.56
2022-10-30T22:41:41.917Z,101809.06
2022-10-30T22:44:13.301Z,101802.09
2022-10-30T22:46:40.346Z,101808.19
2022-10-30T22:49:07.994Z,101808.06
2022-10-30T22:51:37.141Z,101815.03
2022-10-30T22:54:05.741Z,101808.25
2022-10-30T22:56:34.146Z,101807.72
2022-10-30T22:59:02.309Z,101803.41
2022-10-30T23:01:31.552Z,101806.19
2022-10-30T23:04:00.615Z,101806.31
2022-10-30T23:06:28.493Z,101812.34
2022-10-30T23:08:58.216Z,101814.03
2022-10-30T23:11:25.286Z,101806.09
2022-10-30T23:13:51.998Z,101821.72
2022-10-30T23:16:21.235Z,101816.56
2022-10-30T23:18:48.940Z,101820.13
2022-10-30T23:21:20.055Z,101822.66
2022-10-30T23:23:46.843Z,101820.59
2022-10-30T23:26:25.171Z,101820.75
2022-10-30T23:28:53.665Z,101825.28
2022-10-30T23:31:27.481Z,101826.97
2022-10-30T23:33:57.224Z,101833.91
2022-10-30T23:36:24.299Z,101829.75
2022-10-30T23:38:55.658Z,101831.66
2022-10-30T23:41:23.688Z,101838.81
2022-10-30T23:43:53.657Z,101840.78
2022-10-30T23:46:20.507Z,101841.63
2022-10-30T23:48:46.985Z,101844.25
2022-10-30T23:51:13.695Z,101837.47
2022-10-30T23:53:40.194Z,101840.22
2022-10-30T23:56:07.407Z,101839.38
2022-10-30T23:58:34.270Z,101838.69
